createdAt,value
2019-04-05T00:00:54.742Z,25.9
2019-04-05T00:01:54.824Z,24.4
2019-04-05T00:02:54.894Z,23.700001
2019-04-05T00:03:54.988Z,25.799999
2019-04-05T00:04:55.035Z,26.4
2019-04-05T00:05:55.159Z,30.200001
2019-04-05T00:06:55.238Z,33.700001
2019-04-05T00:07:55.315Z,33.700001
2019-04-05T00:08:55.376Z,29.4
2019-04-05T00:09:55.463Z,31.5
2019-04-05T00:10:55.601Z,28.5
2019-04-05T00:11:55.652Z,29.799999
2019-04-05T00:12:55.719Z,35.099998
2019-04-05T00:13:55.852Z,33
2019-04-05T00:14:55.925Z,42.5
2019-04-05T00:15:56.081Z,41.200001
2019-04-05T00:16:56.047Z,40.200001
2019-04-05T00:17:56.120Z,48.599998
2019-04-05T00:18:56.223Z,45.799999
2019-04-05T00:19:56.323Z,37.099998
2019-04-05T00:20:56.611Z,39.5
2019-04-05T00:21:56.514Z,47.200001
2019-04-05T00:22:56.593Z,46.599998
2019-04-05T00:23:56.659Z,49.799999
2019-04-05T00:24:56.806Z,34.599998
2019-04-05T00:25:56.986Z,54.700001
2019-04-05T00:26:56.914Z,50.5
2019-04-05T00:27:57.024Z,45.599998
2019-04-05T00:28:57.102Z,53.900002
2019-04-05T00:29:57.148Z,51.099998
2019-04-05T00:30:57.310Z,53.599998
2019-04-05T00:31:57.399Z,55.400002
2019-04-05T00:32:57.520Z,45.400002
2019-04-05T00:33:57.676Z,47.5
2019-04-05T00:34:57.779Z,40.400002
2019-04-05T00:35:57.938Z,41.5
2019-04-05T00:36:58.022Z,43.799999
2019-04-05T00:37:58.178Z,54.799999
2019-04-05T00:38:58.224Z,57.599998
2019-04-05T00:39:58.316Z,57.400002
2019-04-05T00:40:58.746Z,49
2019-04-05T00:41:58.545Z,48.900002
2019-04-05T00:42:58.631Z,70.699997
2019-04-05T00:43:58.735Z,83.400002
2019-04-05T00:44:58.835Z,70.300003
2019-04-05T00:45:58.964Z,68.199997
2019-04-05T00:46:59.057Z,50.900002
2019-04-05T00:47:59.155Z,50.400002
2019-04-05T00:48:59.272Z,57.799999
2019-04-05T00:49:59.399Z,50.400002
2019-04-05T00:50:59.538Z,44
2019-04-05T00:51:59.681Z,63.099998
2019-04-05T00:52:59.738Z,49.400002
2019-04-05T00:53:59.836Z,44.400002
2019-04-05T00:54:59.948Z,49.900002
2019-04-05T00:56:00.106Z,57.299999
2019-04-05T00:57:00.186Z,76.099998
2019-04-05T00:58:00.264Z,66
2019-04-05T00:59:00.361Z,75.599998
2019-04-05T01:00:00.443Z,62.5
2019-04-05T01:01:00.581Z,68
2019-04-05T01:02:00.652Z,70.900002
2019-04-05T01:03:00.750Z,52.700001
2019-04-05T01:04:00.780Z,45.5
2019-04-05T01:05:00.850Z,47.599998
2019-04-05T01:06:00.998Z,48.799999
2019-04-05T01:07:00.917Z,75.400002
2019-04-05T01:08:01.053Z,51.299999
2019-04-05T01:09:01.178Z,46
2019-04-05T01:10:01.272Z,47.799999
2019-04-05T01:11:01.390Z,60.200001
2019-04-05T01:12:01.453Z,69
2019-04-05T01:13:01.555Z,48.799999
2019-04-05T01:14:01.654Z,43.700001
2019-04-05T01:15:01.749Z,40.099998
2019-04-05T01:16:01.866Z,44.5
2019-04-05T01:17:01.949Z,39.5
2019-04-05T01:18:02.060Z,40.599998
2019-04-05T01:19:03.987Z,48.700001
2019-04-05T01:20:03.216Z,42.599998
2019-04-05T01:21:02.350Z,40.5
2019-04-05T01:22:02.446Z,39.799999
2019-04-05T01:23:03.520Z,64.5
2019-04-05T01:24:02.604Z,46.299999
2019-04-05T01:25:02.663Z,47.400002
2019-04-05T01:26:02.789Z,42.900002
2019-04-05T01:27:02.911Z,41.900002
2019-04-05T01:28:03.010Z,38
2019-04-05T01:29:03.134Z,45.599998
2019-04-05T01:30:03.227Z,80
2019-04-05T01:31:03.330Z,74
2019-04-05T01:32:03.453Z,56.5
2019-04-05T01:33:03.544Z,42.799999
2019-04-05T01:34:05.493Z,53.299999
2019-04-05T01:35:04.714Z,47.799999
2019-04-05T01:36:03.805Z,46.400002
2019-04-05T01:37:03.936Z,42
2019-04-05T01:38:04.054Z,45.599998
2019-04-05T01:39:04.154Z,47.799999
2019-04-05T01:40:04.218Z,43.599998
2019-04-05T01:41:04.309Z,44.200001
2019-04-05T01:42:04.417Z,42.900002
2019-04-05T01:43:04.514Z,41.599998
2019-04-05T01:44:04.614Z,57.299999
2019-04-05T01:45:04.703Z,44.299999
2019-04-05T01:46:04.788Z,106.4
2019-04-05T01:47:04.902Z,58
2019-04-05T01:48:04.996Z,44.099998
2019-04-05T01:49:05.080Z,43.900002
2019-04-05T01:50:05.175Z,48.799999
2019-04-05T01:51:05.324Z,43.599998
2019-04-05T01:52:05.434Z,41.799999
2019-04-05T01:53:05.512Z,39.799999
2019-04-05T01:54:05.581Z,64.800003
2019-04-05T01:55:05.676Z,54.799999
2019-04-05T01:56:05.785Z,44.700001
2019-04-05T01:57:05.925Z,62.299999
2019-04-05T01:58:06.004Z,64.300003
2019-04-05T01:59:06.126Z,50.599998
2019-04-05T02:00:06.235Z,50.5
2019-04-05T02:01:06.328Z,64.300003
2019-04-05T02:02:06.459Z,40.299999
2019-04-05T02:03:06.555Z,39.400002
2019-04-05T02:04:06.624Z,43.400002
2019-04-05T02:05:06.710Z,47
2019-04-05T02:06:06.766Z,47.700001
2019-04-05T02:07:06.875Z,68.800003
2019-04-05T02:08:06.977Z,73.800003
2019-04-05T02:09:07.083Z,57.299999
2019-04-05T02:10:07.158Z,52
2019-04-05T02:11:07.247Z,56.400002
2019-04-05T02:12:07.435Z,39.299999
2019-04-05T02:13:07.370Z,46.799999
2019-04-05T02:14:07.462Z,44.599998
2019-04-05T02:15:07.552Z,51.400002
2019-04-05T02:16:07.615Z,83.5
2019-04-05T02:17:07.735Z,92.199997
2019-04-05T02:18:07.828Z,67.599998
2019-04-05T02:19:07.930Z,73.800003
2019-04-05T02:20:08.022Z,79.699997
2019-04-05T02:21:08.141Z,80
2019-04-05T02:22:08.345Z,62.400002
2019-04-05T02:23:08.236Z,67.599998
2019-04-05T02:24:08.333Z,81
2019-04-05T02:25:08.408Z,82.599998
2019-04-05T02:26:08.472Z,79.599998
2019-04-05T02:27:08.606Z,60.700001
2019-04-05T02:28:08.671Z,67.5
2019-04-05T02:29:08.762Z,101.09999
2019-04-05T02:30:08.934Z,91.900002
2019-04-05T02:31:08.873Z,96
2019-04-05T02:32:09.987Z,90.599998
2019-04-05T02:33:09.089Z,116.3
2019-04-05T02:34:09.183Z,105.8
2019-04-05T02:35:09.306Z,87.800003
2019-04-05T02:36:09.410Z,136.3
2019-04-05T02:37:09.804Z,96.599998
2019-04-05T02:38:09.541Z,108.59999
2019-04-05T02:39:09.633Z,115.5
2019-04-05T02:40:09.748Z,119.9
2019-04-05T02:41:09.845Z,65.800003
2019-04-05T02:42:10.038Z,77.800003
2019-04-05T02:43:09.965Z,60.5
2019-04-05T02:44:10.066Z,61.799999
2019-04-05T02:45:10.156Z,70.300003
2019-04-05T02:46:22.513Z,76.599998
2019-04-05T02:47:11.342Z,75.300003
2019-04-05T02:48:10.440Z,64.300003
2019-04-05T02:49:10.543Z,68.400002
2019-04-05T02:50:10.633Z,55
2019-04-05T02:51:10.728Z,55.099998
2019-04-05T02:52:10.864Z,88.900002
2019-04-05T02:53:10.955Z,69.900002
2019-04-05T02:54:11.069Z,63.299999
2019-04-05T02:55:11.163Z,83.5
2019-04-05T02:56:11.221Z,80.400002
2019-04-05T02:57:11.365Z,58.799999
2019-04-05T02:58:11.464Z,60.200001
2019-04-05T02:59:11.553Z,96
2019-04-05T03:00:11.657Z,69.300003
2019-04-05T03:01:11.767Z,72.099998
2019-04-05T03:02:11.913Z,90.300003
2019-04-05T03:03:12.000Z,93.699997
2019-04-05T03:04:12.088Z,57.299999
2019-04-05T03:05:12.167Z,63.099998
2019-04-05T03:06:12.265Z,73.199997
2019-04-05T03:07:13.370Z,77.400002
2019-04-05T03:08:12.479Z,74.400002
2019-04-05T03:09:12.558Z,69.599998
2019-04-05T03:10:12.660Z,76.900002
2019-04-05T03:11:12.798Z,75.599998
2019-04-05T03:12:12.949Z,69.199997
2019-04-05T03:13:13.089Z,60.900002
2019-04-05T03:14:13.184Z,76.599998
2019-04-05T03:15:13.262Z,74.699997
2019-04-05T03:16:13.405Z,65.300003
2019-04-05T03:17:13.554Z,62.900002
2019-04-05T03:18:13.488Z,67.199997
2019-04-05T03:19:13.571Z,73.400002
2019-04-05T03:20:13.707Z,58.200001
2019-04-05T03:21:13.741Z,54.599998
2019-04-05T03:22:13.881Z,52.400002
2019-04-05T03:23:14.033Z,51.400002
2019-04-05T03:24:13.991Z,46.5
2019-04-05T03:25:14.095Z,57.700001
2019-04-05T03:26:14.216Z,49.200001
2019-04-05T03:27:14.318Z,66.199997
2019-04-05T03:28:14.450Z,47.299999
2019-04-05T03:29:14.553Z,52.299999
2019-04-05T03:30:14.650Z,53
2019-04-05T03:31:14.767Z,48.700001
2019-04-05T03:32:14.845Z,73.5
2019-04-05T03:33:14.970Z,74
2019-04-05T03:34:15.076Z,49.200001
2019-04-05T03:35:15.189Z,52
2019-04-05T03:36:15.244Z,70.900002
2019-04-05T03:37:15.377Z,51.200001
2019-04-05T03:38:15.539Z,49.700001
2019-04-05T03:39:15.639Z,47.400002
2019-04-05T03:40:15.747Z,51.200001
2019-04-05T03:41:15.843Z,51.900002
2019-04-05T03:42:15.936Z,48.5
2019-04-05T03:43:16.067Z,48.099998
2019-04-05T03:44:16.184Z,56.799999
2019-04-05T03:45:16.372Z,48.700001
2019-04-05T03:46:16.310Z,50.200001
2019-04-05T03:47:16.449Z,62.099998
2019-04-05T03:48:16.604Z,58.900002
2019-04-05T03:49:16.571Z,73
2019-04-05T03:50:16.740Z,55.900002
2019-04-05T03:51:16.685Z,59.099998
2019-04-05T03:52:16.788Z,57
2019-04-05T03:53:16.954Z,61.299999
2019-04-05T03:54:16.924Z,72
2019-04-05T03:55:17.035Z,56.700001
2019-04-05T03:56:17.131Z,65.199997
2019-04-05T03:57:17.236Z,60.700001
2019-04-05T03:58:17.386Z,53.799999
2019-04-05T03:59:17.493Z,59.599998
2019-04-05T04:00:17.606Z,53.200001
2019-04-05T04:01:17.685Z,53.5
2019-04-05T04:02:17.788Z,60.099998
2019-04-05T04:03:17.944Z,59.700001
2019-04-05T04:04:17.881Z,53.700001
2019-04-05T04:05:18.000Z,66
2019-04-05T04:06:18.165Z,56.799999
2019-04-05T04:07:18.262Z,55.900002
2019-04-05T04:08:18.447Z,63.099998
2019-04-05T04:09:19.376Z,55.299999
2019-04-05T04:10:18.443Z,49.900002
2019-04-05T04:11:18.551Z,50.400002
2019-04-05T04:12:18.647Z,70.5
2019-04-05T04:13:18.789Z,76.199997
2019-04-05T04:14:19.893Z,63.400002
2019-04-05T04:15:18.972Z,77.900002
2019-04-05T04:16:19.068Z,63.900002
2019-04-05T04:17:19.138Z,85.599998
2019-04-05T04:18:19.301Z,67.900002
2019-04-05T04:19:19.250Z,64
2019-04-05T04:20:19.315Z,60.900002
2019-04-05T04:21:19.422Z,65.800003
2019-04-05T04:22:19.520Z,64.699997
2019-04-05T04:23:19.649Z,62.400002
2019-04-05T04:24:19.736Z,67.400002
2019-04-05T04:25:19.839Z,81.400002
2019-04-05T04:26:19.928Z,81.099998
2019-04-05T04:27:20.005Z,69.599998
2019-04-05T04:28:20.156Z,80.5
2019-04-05T04:29:20.264Z,90.400002
2019-04-05T04:30:20.374Z,83.599998
2019-04-05T04:31:20.485Z,81.5
2019-04-05T04:32:20.579Z,83
2019-04-05T04:33:20.745Z,74.199997
2019-04-05T04:34:20.726Z,66.800003
2019-04-05T04:35:20.666Z,100.09999
2019-04-05T04:36:20.758Z,87.099998
2019-04-05T04:37:20.856Z,76.400002
2019-04-05T04:38:21.014Z,87.300003
2019-04-05T04:39:21.143Z,66.800003
2019-04-05T04:40:21.272Z,65.900002
2019-04-05T04:41:21.395Z,71.099998
2019-04-05T04:42:21.554Z,99.199997
2019-04-05T04:43:21.687Z,74.5
2019-04-05T04:44:21.787Z,90.599998
2019-04-05T04:45:21.873Z,76.099998
2019-04-05T04:46:21.988Z,77.800003
2019-04-05T04:47:26.667Z,70
2019-04-05T04:48:23.190Z,66.599998
2019-04-05T04:49:22.289Z,75.5
2019-04-05T04:50:22.404Z,74.400002
2019-04-05T04:51:22.506Z,80.900002
2019-04-05T04:52:22.620Z,75.099998
2019-04-05T04:53:22.759Z,77.400002
2019-04-05T04:54:22.870Z,69.300003
2019-04-05T04:55:22.984Z,68
2019-04-05T04:56:23.088Z,82.699997
2019-04-05T04:57:23.190Z,71.900002
2019-04-05T04:58:23.320Z,89.800003
2019-04-05T04:59:23.492Z,88.300003
2019-04-05T05:00:23.438Z,84.599998
2019-04-05T05:01:23.548Z,85.699997
2019-04-05T05:02:23.653Z,81.599998
2019-04-05T05:03:23.794Z,92.300003
2019-04-05T05:04:23.911Z,87.300003
2019-04-05T05:05:24.012Z,79.699997
2019-04-05T05:06:24.112Z,92.599998
2019-04-05T05:07:24.229Z,80.099998
2019-04-05T05:08:24.328Z,89.699997
2019-04-05T05:09:24.446Z,104.5
2019-04-05T05:10:24.552Z,90.300003
2019-04-05T05:11:24.643Z,85.5
2019-04-05T05:12:24.748Z,92.599998
2019-04-05T05:13:24.856Z,77.699997
2019-04-05T05:14:24.991Z,97.900002
2019-04-05T05:15:27.268Z,103.4
2019-04-05T05:16:26.196Z,81.099998
2019-04-05T05:17:37.337Z,92.800003
2019-04-05T05:18:26.393Z,86.800003
2019-04-05T05:19:25.523Z,109.5
2019-04-05T05:20:25.697Z,95.400002
2019-04-05T05:21:25.722Z,89.400002
2019-04-05T05:22:25.849Z,95.300003
2019-04-05T05:23:25.960Z,96.199997
2019-04-05T05:24:26.183Z,93.199997
2019-04-05T05:25:26.244Z,76.400002
2019-04-05T05:26:26.239Z,117.5
2019-04-05T05:27:26.362Z,81.300003
2019-04-05T05:28:26.472Z,94.699997
2019-04-05T05:29:26.615Z,81.800003
2019-04-05T05:30:26.740Z,75.800003
2019-04-05T05:31:26.842Z,66.699997
2019-04-05T05:32:26.956Z,75.599998
2019-04-05T05:33:27.075Z,64.300003
2019-04-05T05:34:27.232Z,105.09999
2019-04-05T05:35:27.347Z,86.199997
2019-04-05T05:36:27.465Z,96.699997
2019-04-05T05:37:27.584Z,69.699997
2019-04-05T05:38:27.580Z,79.599998
2019-04-05T05:39:27.602Z,67.800003
2019-04-05T05:40:34.499Z,62
2019-04-05T05:41:28.699Z,71.099998
2019-04-05T05:42:27.853Z,64.900002
2019-04-05T05:43:28.007Z,62.099998
2019-04-05T05:44:28.218Z,78.599998
2019-04-05T05:45:28.208Z,85
2019-04-05T05:46:28.189Z,72.699997
2019-04-05T05:47:28.347Z,64.400002
2019-04-05T05:48:30.777Z,111.9
2019-04-05T05:49:29.478Z,109.09999
2019-04-05T05:50:28.505Z,70.900002
2019-04-05T05:51:28.533Z,65.099998
2019-04-05T05:52:28.600Z,102.19999
2019-04-05T05:53:28.587Z,86.400002
2019-04-05T05:54:28.769Z,74
2019-04-05T05:55:30.141Z,91.400002
2019-04-05T05:56:29.839Z,74.599998
2019-04-05T05:57:28.927Z,96
2019-04-05T05:58:28.982Z,71.599998
2019-04-05T05:59:30.187Z,77.199997
2019-04-05T06:00:31.007Z,102
2019-04-05T06:01:30.119Z,87.800003
2019-04-05T06:02:29.172Z,73.300003
2019-04-05T06:03:29.225Z,70.5
2019-04-05T06:04:29.306Z,82.300003
2019-04-05T06:05:29.361Z,65.800003
2019-04-05T06:06:29.402Z,70.300003
2019-04-05T06:07:29.433Z,75.699997
2019-04-05T06:08:29.507Z,86.900002
2019-04-05T06:09:29.610Z,89
2019-04-05T06:10:29.678Z,66.199997
2019-04-05T06:11:29.725Z,98.699997
2019-04-05T06:12:29.796Z,92.400002
2019-04-05T06:13:29.839Z,95.199997
2019-04-05T06:14:29.952Z,68.900002
2019-04-05T06:15:30.057Z,89.599998
2019-04-05T06:16:30.098Z,92
2019-04-05T06:17:30.137Z,87.199997
2019-04-05T06:18:30.199Z,91.400002
2019-04-05T06:19:30.306Z,64.900002
2019-04-05T06:20:30.378Z,102.9
2019-04-05T06:21:30.425Z,79.400002
2019-04-05T06:22:30.540Z,78.599998
2019-04-05T06:23:33.773Z,71.900002
2019-04-05T06:24:31.592Z,78.400002
2019-04-05T06:25:30.632Z,75.199997
2019-04-05T06:26:30.698Z,88.400002
2019-04-05T06:27:30.743Z,85.699997
2019-04-05T06:28:30.838Z,87.900002
2019-04-05T06:29:30.888Z,97.099998
2019-04-05T06:30:30.928Z,78.5
2019-04-05T06:31:31.036Z,78.900002
2019-04-05T06:32:31.117Z,92.900002
2019-04-05T06:33:32.062Z,89.199997
2019-04-05T06:34:32.197Z,96.599998
2019-04-05T06:35:31.234Z,78.800003
2019-04-05T06:36:31.279Z,65
2019-04-05T06:37:31.327Z,94.5
2019-04-05T06:38:31.390Z,88.699997
2019-04-05T06:39:31.455Z,90.699997
2019-04-05T06:40:40.441Z,91.099998
2019-04-05T06:41:32.529Z,85.599998
2019-04-05T06:42:31.581Z,69.400002
2019-04-05T06:43:31.631Z,79.5
2019-04-05T06:44:31.701Z,67.5
2019-04-05T06:45:31.759Z,62.299999
2019-04-05T06:46:31.806Z,82.800003
2019-04-05T06:47:31.855Z,68.099998
2019-04-05T06:48:31.892Z,62.400002
2019-04-05T06:49:32.004Z,61.200001
2019-04-05T06:50:32.045Z,59.900002
2019-04-05T06:51:32.096Z,60.299999
2019-04-05T06:52:32.152Z,84
2019-04-05T06:53:32.204Z,65.900002
2019-04-05T06:54:32.294Z,79.900002
2019-04-05T06:55:32.358Z,68.5
2019-04-05T06:56:32.407Z,61.5
2019-04-05T06:57:32.448Z,57.799999
2019-04-05T06:58:32.476Z,66.300003
2019-04-05T06:59:32.647Z,80.900002
2019-04-05T07:00:32.525Z,69.400002
2019-04-05T07:01:32.583Z,57.700001
2019-04-05T07:02:32.627Z,57.200001
2019-04-05T07:03:32.712Z,55.200001
2019-04-05T07:04:32.795Z,63.5
2019-04-05T07:05:32.841Z,73.699997
2019-04-05T07:06:32.923Z,66.300003
2019-04-05T07:07:32.992Z,56.599998
2019-04-05T07:08:33.092Z,60.799999
2019-04-05T07:09:34.215Z,62.299999
2019-04-05T07:10:34.265Z,58.099998
2019-04-05T07:11:33.298Z,59.400002
2019-04-05T07:12:33.344Z,60.400002
2019-04-05T07:13:33.387Z,69.5
2019-04-05T07:14:33.454Z,55.700001
2019-04-05T07:15:33.530Z,58.299999
2019-04-05T07:16:33.578Z,52.900002
2019-04-05T07:17:33.615Z,50.599998
2019-04-05T07:18:36.098Z,55.299999
2019-04-05T07:19:34.814Z,54.900002
2019-04-05T07:20:33.888Z,55.599998
2019-04-05T07:21:33.926Z,42.599998
2019-04-05T07:22:39.038Z,45.900002
2019-04-05T07:23:34.997Z,51.099998
2019-04-05T07:24:34.103Z,48.099998
2019-04-05T07:25:34.192Z,47.099998
2019-04-05T07:26:34.262Z,48.5
2019-04-05T07:27:34.835Z,48.900002
2019-04-05T07:28:34.371Z,43.200001
2019-04-05T07:29:34.426Z,40.799999
2019-04-05T07:30:34.486Z,45.799999
2019-04-05T07:31:35.768Z,48.200001
2019-04-05T07:32:34.555Z,47.400002
2019-04-05T07:33:34.746Z,50
2019-04-05T07:34:34.644Z,47.900002
2019-04-05T07:35:34.667Z,50
2019-04-05T07:36:34.742Z,49.200001
2019-04-05T07:37:34.797Z,47.400002
2019-04-05T07:38:34.853Z,51.599998
2019-04-05T07:39:34.900Z,44
2019-04-05T07:40:34.989Z,47
2019-04-05T07:41:35.032Z,46.5
2019-04-05T07:42:35.077Z,42
2019-04-05T07:43:35.134Z,46.099998
2019-04-05T07:44:35.178Z,44.400002
2019-04-05T07:45:35.250Z,44
2019-04-05T07:46:35.306Z,40.099998
2019-04-05T07:47:35.352Z,38.5
2019-04-05T07:48:44.460Z,38.799999
2019-04-05T07:49:36.445Z,39.5
2019-04-05T07:50:35.514Z,38.299999
2019-04-05T07:51:35.565Z,41.799999
2019-04-05T07:52:35.647Z,43.799999
2019-04-05T07:53:35.729Z,41.299999
2019-04-05T07:54:35.793Z,42.099998
2019-04-05T07:55:35.911Z,39.799999
2019-04-05T07:56:35.965Z,44.599998
2019-04-05T07:57:36.004Z,45.5
2019-04-05T07:58:36.088Z,47.099998
2019-04-05T07:59:36.128Z,46.599998
2019-04-05T08:00:36.228Z,40.900002
2019-04-05T08:01:36.263Z,42.299999
2019-04-05T08:02:36.331Z,44
2019-04-05T08:03:36.379Z,45.700001
2019-04-05T08:04:36.454Z,40.599998
2019-04-05T08:05:36.575Z,39.799999
2019-04-05T08:06:36.674Z,43.700001
2019-04-05T08:07:36.750Z,40.5
2019-04-05T08:08:36.797Z,40.400002
2019-04-05T08:09:37.850Z,43.400002
2019-04-05T08:10:37.181Z,41.200001
2019-04-05T08:11:36.915Z,41.099998
2019-04-05T08:12:36.964Z,38.200001
2019-04-05T08:13:37.005Z,43
2019-04-05T08:14:37.105Z,37.200001
2019-04-05T08:15:37.204Z,42.099998
2019-04-05T08:16:37.256Z,42.099998
2019-04-05T08:17:37.343Z,37
2019-04-05T08:18:37.405Z,37.200001
2019-04-05T08:19:37.557Z,42.700001
2019-04-05T08:20:37.863Z,40
2019-04-05T08:21:37.741Z,37.700001
2019-04-05T08:22:37.817Z,38.799999
2019-04-05T08:23:37.950Z,38.200001
2019-04-05T08:24:37.997Z,41.5
2019-04-05T08:25:41.017Z,35.599998
2019-04-05T08:26:39.170Z,38.5
2019-04-05T08:27:38.279Z,38
2019-04-05T08:28:38.385Z,38
2019-04-05T08:29:38.488Z,36.200001
2019-04-05T08:30:38.625Z,39
2019-04-05T08:31:38.697Z,39.299999
2019-04-05T08:32:38.736Z,35.700001
2019-04-05T08:33:38.778Z,36.200001
2019-04-05T08:34:38.834Z,38.5
2019-04-05T08:35:38.977Z,36.299999
2019-04-05T08:36:39.036Z,35.200001
2019-04-05T08:37:39.133Z,36.5
2019-04-05T08:38:39.950Z,34.599998
2019-04-05T08:39:40.274Z,32.200001
2019-04-05T08:40:39.338Z,32.900002
2019-04-05T08:41:39.380Z,32.799999
2019-04-05T08:42:39.430Z,33.799999
2019-04-05T08:43:39.513Z,36.599998
2019-04-05T08:44:39.555Z,35.299999
2019-04-05T08:45:39.647Z,35
2019-04-05T08:46:39.694Z,33.299999
2019-04-05T08:47:39.771Z,34.299999
2019-04-05T08:48:39.784Z,33.200001
2019-04-05T08:49:39.860Z,32.900002
2019-04-05T08:50:39.951Z,33.5
2019-04-05T08:51:39.996Z,34.200001
2019-04-05T08:52:40.049Z,31.799999
2019-04-05T08:53:40.110Z,30.299999
2019-04-05T08:54:40.124Z,33
2019-04-05T08:55:40.241Z,34.099998
2019-04-05T08:56:40.318Z,36.700001
2019-04-05T08:57:40.363Z,34.299999
2019-04-05T08:58:40.390Z,36.099998
2019-04-05T08:59:40.455Z,37.099998
2019-04-05T09:00:40.588Z,30.9
2019-04-05T09:01:40.634Z,33.599998
2019-04-05T09:02:40.794Z,32.200001
2019-04-05T09:03:40.780Z,30.299999
2019-04-05T09:04:40.824Z,33.200001
2019-04-05T09:05:40.878Z,36.900002
2019-04-05T09:06:40.959Z,33.799999
2019-04-05T09:07:40.997Z,31.6
2019-04-05T09:08:41.049Z,33
2019-04-05T09:09:41.106Z,32.099998
2019-04-05T09:10:41.162Z,33
2019-04-05T09:11:41.241Z,32.099998
2019-04-05T09:12:41.298Z,29
2019-04-05T09:13:41.351Z,28.1
2019-04-05T09:14:41.442Z,30.1
2019-04-05T09:15:41.499Z,29
2019-04-05T09:16:41.585Z,29.200001
2019-04-05T09:17:41.628Z,27.299999
2019-04-05T09:18:41.683Z,27.1
2019-04-05T09:19:41.757Z,26.799999
2019-04-05T09:20:41.814Z,29.9
2019-04-05T09:21:41.902Z,25.6
2019-04-05T09:22:41.939Z,28.4
2019-04-05T09:23:41.998Z,27
2019-04-05T09:24:42.044Z,24.5
2019-04-05T09:25:42.093Z,27.700001
2019-04-05T09:26:42.199Z,27.9
2019-04-05T09:27:42.256Z,26.299999
2019-04-05T09:28:42.304Z,28.1
2019-04-05T09:29:42.353Z,28.5
2019-04-05T09:30:42.390Z,28
2019-04-05T09:31:42.497Z,31.6
2019-04-05T09:32:42.603Z,27
2019-04-05T09:33:43.643Z,29.299999
2019-04-05T09:34:42.684Z,26.700001
2019-04-05T09:35:42.726Z,28.4
2019-04-05T09:36:42.834Z,30.299999
2019-04-05T09:37:43.953Z,28.299999
2019-04-05T09:38:43.021Z,28.200001
2019-04-05T09:39:43.149Z,27.700001
2019-04-05T09:40:43.189Z,28.9
2019-04-05T09:41:43.311Z,27.6
2019-04-05T09:42:43.363Z,29.5
2019-04-05T09:43:43.415Z,26.700001
2019-04-05T09:44:43.460Z,28.5
2019-04-05T09:45:43.505Z,29.200001
2019-04-05T09:46:47.093Z,27.799999
2019-04-05T09:47:44.630Z,28.5
2019-04-05T09:48:43.672Z,27.299999
2019-04-05T09:49:43.690Z,30.1
2019-04-05T09:50:43.763Z,27.9
2019-04-05T09:51:43.892Z,27.6
2019-04-05T09:52:43.961Z,27.299999
2019-04-05T09:53:44.032Z,27.799999
2019-04-05T09:54:44.088Z,27.200001
2019-04-05T09:55:44.166Z,28.9
2019-04-05T09:56:44.265Z,28.5
2019-04-05T09:57:44.318Z,30.299999
2019-04-05T09:58:44.404Z,28.6
2019-04-05T09:59:44.447Z,28.9
2019-04-05T10:00:44.496Z,30.4
2019-04-05T10:01:44.578Z,28.6
2019-04-05T10:02:44.630Z,28.5
2019-04-05T10:03:44.735Z,27.700001
2019-04-05T10:04:44.798Z,28.5
2019-04-05T10:05:44.915Z,30.4
2019-04-05T10:06:45.022Z,29.1
2019-04-05T10:07:54.491Z,27.299999
2019-04-05T10:08:46.103Z,30.5
2019-04-05T10:09:45.180Z,30.5
2019-04-05T10:10:45.224Z,30.6
2019-04-05T10:11:45.344Z,30.6
2019-04-05T10:12:45.390Z,31.4
2019-04-05T10:13:45.441Z,34.400002
2019-04-05T10:14:45.509Z,32.599998
2019-04-05T10:15:45.552Z,32.700001
2019-04-05T10:16:45.659Z,31.9
2019-04-05T10:17:45.706Z,30
2019-04-05T10:18:45.752Z,30.1
2019-04-05T10:19:49.961Z,28.5
2019-04-05T10:20:46.808Z,29.5
2019-04-05T10:21:45.918Z,30.700001
2019-04-05T10:22:45.960Z,28.299999
2019-04-05T10:23:46.019Z,31.799999
2019-04-05T10:24:46.062Z,30.200001
2019-04-05T10:25:46.095Z,29.1
2019-04-05T10:26:46.198Z,30.5
2019-04-05T10:27:46.237Z,30
2019-04-05T10:28:46.283Z,28.6
2019-04-05T10:29:49.206Z,29.799999
2019-04-05T10:30:47.360Z,31
2019-04-05T10:31:46.447Z,31.6
2019-04-05T10:32:46.575Z,31.200001
2019-04-05T10:33:46.580Z,33.299999
2019-04-05T10:34:46.651Z,32
2019-04-05T10:35:46.692Z,31.9
2019-04-05T10:36:46.734Z,31.1
2019-04-05T10:37:46.824Z,34.299999
2019-04-05T10:38:46.876Z,34.200001
2019-04-05T10:39:46.968Z,31.6
2019-04-05T10:40:47.027Z,30.700001
2019-04-05T10:41:47.082Z,31.700001
2019-04-05T10:42:47.181Z,34.400002
2019-04-05T10:43:47.225Z,32
2019-04-05T10:44:47.278Z,31.299999
2019-04-05T10:45:47.334Z,31.700001
2019-04-05T10:46:47.382Z,29.799999
2019-04-05T10:47:47.468Z,30.299999
2019-04-05T10:48:47.530Z,33
2019-04-05T10:49:47.568Z,32.799999
2019-04-05T10:50:47.618Z,27.299999
2019-04-05T10:51:47.660Z,27.200001
2019-04-05T10:52:47.746Z,29.5
2019-04-05T10:53:47.791Z,28.9
2019-04-05T10:54:47.961Z,30.4
2019-04-05T10:55:47.898Z,35.200001
2019-04-05T10:56:47.954Z,32.299999
2019-04-05T10:57:48.094Z,28.1
2019-04-05T10:58:48.177Z,27.700001
2019-04-05T10:59:48.222Z,28.799999
2019-04-05T11:00:49.339Z,28.200001
2019-04-05T11:01:48.367Z,28.4
2019-04-05T11:02:48.467Z,29.5
2019-04-05T11:03:48.517Z,32.599998
2019-04-05T11:04:48.624Z,33.5
2019-04-05T11:05:49.344Z,58.900002
2019-04-05T11:06:48.756Z,58.900002
2019-04-05T11:07:48.996Z,38.400002
2019-04-05T11:08:48.880Z,29.4
2019-04-05T11:09:48.951Z,27.200001
2019-04-05T11:10:48.991Z,29.1
2019-04-05T11:11:49.039Z,28.700001
2019-04-05T11:12:49.993Z,28.5
2019-04-05T11:13:50.174Z,30.1
2019-04-05T11:14:49.204Z,31
2019-04-05T11:15:49.251Z,31.1
2019-04-05T11:16:58.090Z,27.4
2019-04-05T11:17:50.643Z,29.700001
2019-04-05T11:18:49.335Z,30.700001
2019-04-05T11:19:49.379Z,30.9
2019-04-05T11:20:49.821Z,35
2019-04-05T11:21:52.168Z,30.700001
2019-04-05T11:22:51.272Z,31.799999
2019-04-05T11:23:49.600Z,29.700001
2019-04-05T11:24:49.653Z,29.200001
2019-04-05T11:25:49.714Z,31.4
2019-04-05T11:26:49.768Z,30
2019-04-05T11:27:49.871Z,32.099998
2019-04-05T11:28:49.922Z,31.700001
2019-04-05T11:29:49.963Z,31.4
2019-04-05T11:30:50.101Z,30.299999
2019-04-05T11:31:56.657Z,31.1
2019-04-05T11:32:51.211Z,27.5
2019-04-05T11:33:50.259Z,28.1
2019-04-05T11:34:50.339Z,28.9
2019-04-05T11:35:50.379Z,30.4
2019-04-05T11:36:50.428Z,30.299999
2019-04-05T11:37:50.898Z,28.5
2019-04-05T11:38:51.524Z,27.700001
2019-04-05T11:39:50.702Z,30.700001
2019-04-05T11:40:50.669Z,28.799999
2019-04-05T11:41:50.748Z,31
2019-04-05T11:42:50.890Z,28.299999
2019-04-05T11:43:50.931Z,28.700001
2019-04-05T11:44:51.603Z,29.299999
2019-04-05T11:45:51.998Z,31.5
2019-04-05T11:46:51.071Z,29.700001
2019-04-05T11:47:53.505Z,28.6
2019-04-05T11:48:52.185Z,28
2019-04-05T11:49:51.218Z,28.799999
2019-04-05T11:50:51.280Z,31.299999
2019-04-05T11:51:51.327Z,29.700001
2019-04-05T11:52:51.421Z,30.799999
2019-04-05T11:53:51.511Z,30.799999
2019-04-05T11:54:51.541Z,31.4
2019-04-05T11:55:51.581Z,28.700001
2019-04-05T11:56:51.644Z,28.799999
2019-04-05T11:57:54.554Z,28.700001
2019-04-05T11:58:52.780Z,28.5
2019-04-05T11:59:51.882Z,29